sensor_id;sensor_type;location;lat;lon;timestamp;pressure;altitude;pressure_sealevel;temperature
37536;BMP180;23379;51.554;6.736;2024-02-28T00:01:29;101451.00;;;1.30
37536;BMP180;23379;51.554;6.736;2024-02-28T00:03:54;101451.00;;;1.40
37536;BMP180;23379;51.554;6.736;2024-02-28T00:06:19;101452.00;;;1.40
37536;BMP180;23379;51.554;6.736;2024-02-28T00:08:46;101447.00;;;1.30
37536;BMP180;23379;51.554;6.736;2024-02-28T00:11:11;101448.00;;;1.30
37536;BMP180;23379;51.554;6.736;2024-02-28T00:13:36;101437.00;;;1.20
37536;BMP180;23379;51.554;6.736;2024-02-28T00:16:02;101452.00;;;1.30
37536;BMP180;23379;51.554;6.736;2024-02-28T00:18:28;101437.00;;;1.30
37536;BMP180;23379;51.554;6.736;2024-02-28T00:20:53;101449.00;;;1.50
37536;BMP180;23379;51.554;6.736;2024-02-28T00:23:19;101440.00;;;1.50
37536;BMP180;23379;51.554;6.736;2024-02-28T00:25:44;101446.00;;;1.60
37536;BMP180;23379;51.554;6.736;2024-02-28T00:28:10;101454.00;;;1.50
37536;BMP180;23379;51.554;6.736;2024-02-28T00:30:35;101434.00;;;1.70
37536;BMP180;23379;51.554;6.736;2024-02-28T00:33:00;101454.00;;;1.70
37536;BMP180;23379;51.554;6.736;2024-02-28T00:35:26;101461.00;;;1.80
37536;BMP180;23379;51.554;6.736;2024-02-28T00:37:51;101444.00;;;1.80
37536;BMP180;23379;51.554;6.736;2024-02-28T00:40:16;101442.00;;;1.70
37536;BMP180;23379;51.554;6.736;2024-02-28T00:42:42;101475.00;;;1.60
37536;BMP180;23379;51.554;6.736;2024-02-28T00:45:08;101473.00;;;1.50
37536;BMP180;23379;51.554;6.736;2024-02-28T00:47:34;101467.00;;;1.70
37536;BMP180;23379;51.554;6.736;2024-02-28T00:50:00;101462.00;;;1.80
37536;BMP180;23379;51.554;6.736;2024-02-28T00:52:28;101473.00;;;1.80
37536;BMP180;23379;51.554;6.736;2024-02-28T00:54:53;101465.00;;;1.80
37536;BMP180;23379;51.554;6.736;2024-02-28T00:57:19;101469.00;;;1.80
37536;BMP180;23379;51.554;6.736;2024-02-28T00:59:44;101493.00;;;1.60
37536;BMP180;23379;51.554;6.736;2024-02-28T01:02:09;101490.00;;;1.60
37536;BMP180;23379;51.554;6.736;2024-02-28T01:04:35;101468.00;;;1.60
37536;BMP180;23379;51.554;6.736;2024-02-28T01:07:00;101477.00;;;1.40
37536;BMP180;23379;51.554;6.736;2024-02-28T01:09:25;101480.00;;;1.50
37536;BMP180;23379;51.554;6.736;2024-02-28T01:11:51;101437.00;;;1.70
37536;BMP180;23379;51.554;6.736;2024-02-28T01:14:16;101473.00;;;1.90
37536;BMP180;23379;51.554;6.736;2024-02-28T01:16:41;101458.00;;;1.80
37536;BMP180;23379;51.554;6.736;2024-02-28T01:19:07;101473.00;;;2.00
37536;BMP180;23379;51.554;6.736;2024-02-28T01:21:32;101452.00;;;2.20
37536;BMP180;23379;51.554;6.736;2024-02-28T01:23:58;101458.00;;;2.00
37536;BMP180;23379;51.554;6.736;2024-02-28T01:26:23;101431.00;;;2.10
37536;BMP180;23379;51.554;6.736;2024-02-28T01:28:49;101432.00;;;2.00
37536;BMP180;23379;51.554;6.736;2024-02-28T01:31:15;101447.00;;;2.10
37536;BMP180;23379;51.554;6.736;2024-02-28T01:33:40;101459.00;;;2.10
37536;BMP180;23379;51.554;6.736;2024-02-28T01:36:09;101463.00;;;2.10
37536;BMP180;23379;51.554;6.736;2024-02-28T01:38:34;101459.00;;;2.20
37536;BMP180;23379;51.554;6.736;2024-02-28T01:41:00;101466.00;;;2.10
37536;BMP180;23379;51.554;6.736;2024-02-28T01:43:25;101471.00;;;2.00
37536;BMP180;23379;51.554;6.736;2024-02-28T01:45:50;101454.00;;;2.20
37536;BMP180;23379;51.554;6.736;2024-02-28T01:48:16;101449.00;;;1.70
37536;BMP180;23379;51.554;6.736;2024-02-28T01:50:41;101422.00;;;1.80
37536;BMP180;23379;51.554;6.736;2024-02-28T01:53:08;101445.00;;;1.90
37536;BMP180;23379;51.554;6.736;2024-02-28T01:55:35;101438.00;;;1.70
37536;BMP180;23379;51.554;6.736;2024-02-28T01:58:01;101418.00;;;1.80
37536;BMP180;23379;51.554;6.736;2024-02-28T02:00:27;101452.00;;;1.90
37536;BMP180;23379;51.554;6.736;2024-02-28T02:02:53;101446.00;;;1.60
37536;BMP180;23379;51.554;6.736;2024-02-28T02:05:19;101424.00;;;1.50
37536;BMP180;23379;51.554;6.736;2024-02-28T02:07:48;101445.00;;;1.70
37536;BMP180;23379;51.554;6.736;2024-02-28T02:10:13;101421.00;;;1.70
37536;BMP180;23379;51.554;6.736;2024-02-28T02:12:39;101420.00;;;1.50
37536;BMP180;23379;51.554;6.736;2024-02-28T02:15:04;101431.00;;;1.40
37536;BMP180;23379;51.554;6.736;2024-02-28T02:17:30;101436.00;;;1.40
37536;BMP180;23379;51.554;6.736;2024-02-28T02:19:55;101439.00;;;1.30
37536;BMP180;23379;51.554;6.736;2024-02-28T02:22:21;101442.00;;;1.40
37536;BMP180;23379;51.554;6.736;2024-02-28T02:24:48;101456.00;;;1.50
37536;BMP180;23379;51.554;6.736;2024-02-28T02:27:13;101449.00;;;1.50
37536;BMP180;23379;51.554;6.736;2024-02-28T02:29:39;101462.00;;;1.40
37536;BMP180;23379;51.554;6.736;2024-02-28T02:32:04;101433.00;;;1.30
37536;BMP180;23379;51.554;6.736;2024-02-28T02:34:30;101450.00;;;1.50
37536;BMP180;23379;51.554;6.736;2024-02-28T02:36:55;101450.00;;;1.60
37536;BMP180;23379;51.554;6.736;2024-02-28T02:39:20;101455.00;;;1.60
37536;BMP180;23379;51.554;6.736;2024-02-28T02:41:46;101440.00;;;1.80
37536;BMP180;23379;51.554;6.736;2024-02-28T02:44:12;101462.00;;;1.80
37536;BMP180;23379;51.554;6.736;2024-02-28T02:46:37;101463.00;;;1.80
37536;BMP180;23379;51.554;6.736;2024-02-28T02:49:04;101459.00;;;1.90
37536;BMP180;23379;51.554;6.736;2024-02-28T02:51:29;101459.00;;;1.90
37536;BMP180;23379;51.554;6.736;2024-02-28T02:53:55;101463.00;;;1.70
37536;BMP180;23379;51.554;6.736;2024-02-28T02:56:20;101469.00;;;1.60
37536;BMP180;23379;51.554;6.736;2024-02-28T02:58:46;101453.00;;;1.50
37536;BMP180;23379;51.554;6.736;2024-02-28T03:01:11;101458.00;;;1.70
37536;BMP180;23379;51.554;6.736;2024-02-28T03:03:36;101464.00;;;1.60
37536;BMP180;23379;51.554;6.736;2024-02-28T03:06:03;101480.00;;;1.70
37536;BMP180;23379;51.554;6.736;2024-02-28T03:08:30;101490.00;;;1.80
37536;BMP180;23379;51.554;6.736;2024-02-28T03:10:55;101483.00;;;1.80
37536;BMP180;23379;51.554;6.736;2024-02-28T03:13:20;101472.00;;;1.80
37536;BMP180;23379;51.554;6.736;2024-02-28T03:15:46;101455.00;;;1.70
37536;BMP180;23379;51.554;6.736;2024-02-28T03:18:11;101443.00;;;1.80
37536;BMP180;23379;51.554;6.736;2024-02-28T03:20:36;101477.00;;;1.90
37536;BMP180;23379;51.554;6.736;2024-02-28T03:23:04;101470.00;;;2.00
37536;BMP180;23379;51.554;6.736;2024-02-28T03:25:33;101465.00;;;2.10
37536;BMP180;23379;51.554;6.736;2024-02-28T03:27:59;101460.00;;;2.10
37536;BMP180;23379;51.554;6.736;2024-02-28T03:30:26;101475.00;;;2.30
37536;BMP180;23379;51.554;6.736;2024-02-28T03:32:51;101483.00;;;2.20
37536;BMP180;23379;51.554;6.736;2024-02-28T03:35:16;101463.00;;;2.30
37536;BMP180;23379;51.554;6.736;2024-02-28T03:37:42;101471.00;;;2.30
37536;BMP180;23379;51.554;6.736;2024-02-28T03:40:07;101463.00;;;2.40
37536;BMP180;23379;51.554;6.736;2024-02-28T03:42:33;101478.00;;;2.40
37536;BMP180;23379;51.554;6.736;2024-02-28T03:44:58;101486.00;;;2.20
37536;BMP180;23379;51.554;6.736;2024-02-28T03:47:24;101479.00;;;2.40
37536;BMP180;23379;51.554;6.736;2024-02-28T03:49:50;101495.00;;;2.40
37536;BMP180;23379;51.554;6.736;2024-02-28T03:52:15;101458.00;;;2.50
37536;BMP180;23379;51.554;6.736;2024-02-28T03:54:44;101465.00;;;2.30
37536;BMP180;23379;51.554;6.736;2024-02-28T03:57:09;101480.00;;;2.20
37536;BMP180;23379;51.554;6.736;2024-02-28T03:59:35;101466.00;;;2.10
37536;BMP180;23379;51.554;6.736;2024-02-28T04:02:00;101472.00;;;2.30
37536;BMP180;23379;51.554;6.736;2024-02-28T04:04:25;101473.00;;;2.60
37536;BMP180;23379;51.554;6.736;2024-02-28T04:06:51;101489.00;;;2.70
37536;BMP180;23379;51.554;6.736;2024-02-28T04:09:17;101482.00;;;2.70
37536;BMP180;23379;51.554;6.736;2024-02-28T04:11:42;101463.00;;;2.70
37536;BMP180;23379;51.554;6.736;2024-02-28T04:14:08;101474.00;;;2.80
37536;BMP180;23379;51.554;6.736;2024-02-28T04:16:33;101471.00;;;2.40
37536;BMP180;23379;51.554;6.736;2024-02-28T04:18:58;101482.00;;;2.50
37536;BMP180;23379;51.554;6.736;2024-02-28T04:21:24;101494.00;;;2.70
37536;BMP180;23379;51.554;6.736;2024-02-28T04:23:49;101488.00;;;2.70
37536;BMP180;23379;51.554;6.736;2024-02-28T04:26:15;101496.00;;;2.90
37536;BMP180;23379;51.554;6.736;2024-02-28T04:28:41;101484.00;;;3.10
37536;BMP180;23379;51.554;6.736;2024-02-28T04:31:07;101503.00;;;2.60
37536;BMP180;23379;51.554;6.736;2024-02-28T04:33:32;101487.00;;;2.70
37536;BMP180;23379;51.554;6.736;2024-02-28T04:35:58;101476.00;;;2.90
37536;BMP180;23379;51.554;6.736;2024-02-28T04:38:23;101500.00;;;2.60
37536;BMP180;23379;51.554;6.736;2024-02-28T04:40:48;101499.00;;;2.60
37536;BMP180;23379;51.554;6.736;2024-02-28T04:43:14;101479.00;;;2.50
37536;BMP180;23379;51.554;6.736;2024-02-28T04:45:40;101485.00;;;2.40
37536;BMP180;23379;51.554;6.736;2024-02-28T04:48:06;101485.00;;;2.40
37536;BMP180;23379;51.554;6.736;2024-02-28T04:50:31;101493.00;;;2.30
37536;BMP180;23379;51.554;6.736;2024-02-28T04:52:56;101482.00;;;2.30
37536;BMP180;23379;51.554;6.736;2024-02-28T04:55:22;101486.00;;;2.40
37536;BMP180;23379;51.554;6.736;2024-02-28T04:57:47;101481.00;;;2.60
37536;BMP180;23379;51.554;6.736;2024-02-28T05:00:13;101498.00;;;2.30
37536;BMP180;23379;51.554;6.736;2024-02-28T05:02:38;101491.00;;;1.90
37536;BMP180;23379;51.554;6.736;2024-02-28T05:05:04;101506.00;;;1.90
37536;BMP180;23379;51.554;6.736;2024-02-28T05:07:29;101508.00;;;1.90
37536;BMP180;23379;51.554;6.736;2024-02-28T05:09:54;101520.00;;;1.80
37536;BMP180;23379;51.554;6.736;2024-02-28T05:12:20;101507.00;;;1.60
37536;BMP180;23379;51.554;6.736;2024-02-28T05:14:45;101487.00;;;1.60
37536;BMP180;23379;51.554;6.736;2024-02-28T05:17:10;101506.00;;;1.70
37536;BMP180;23379;51.554;6.736;2024-02-28T05:19:36;101521.00;;;1.60
37536;BMP180;23379;51.554;6.736;2024-02-28T05:22:01;101529.00;;;1.20
37536;BMP180;23379;51.554;6.736;2024-02-28T05:24:26;101534.00;;;1.50
37536;BMP180;23379;51.554;6.736;2024-02-28T05:26:52;101536.00;;;1.50
37536;BMP180;23379;51.554;6.736;2024-02-28T05:29:17;101541.00;;;1.50
37536;BMP180;23379;51.554;6.736;2024-02-28T05:31:43;101547.00;;;1.70
37536;BMP180;23379;51.554;6.736;2024-02-28T05:34:08;101541.00;;;1.70
37536;BMP180;23379;51.554;6.736;2024-02-28T05:36:33;101550.00;;;1.70
37536;BMP180;23379;51.554;6.736;2024-02-28T05:39:00;101569.00;;;1.80
37536;BMP180;23379;51.554;6.736;2024-02-28T05:41:30;101550.00;;;1.70
37536;BMP180;23379;51.554;6.736;2024-02-28T05:43:56;101527.00;;;1.80
37536;BMP180;23379;51.554;6.736;2024-02-28T05:46:21;101568.00;;;1.90
37536;BMP180;23379;51.554;6.736;2024-02-28T05:48:47;101559.00;;;2.10
37536;BMP180;23379;51.554;6.736;2024-02-28T05:51:13;101557.00;;;2.10
37536;BMP180;23379;51.554;6.736;2024-02-28T05:53:38;101557.00;;;2.00
37536;BMP180;23379;51.554;6.736;2024-02-28T05:56:08;101544.00;;;1.90
37536;BMP180;23379;51.554;6.736;2024-02-28T05:58:41;101566.00;;;2.30
37536;BMP180;23379;51.554;6.736;2024-02-28T06:01:09;101557.00;;;2.20
37536;BMP180;23379;51.554;6.736;2024-02-28T06:03:34;101565.00;;;2.20
37536;BMP180;23379;51.554;6.736;2024-02-28T06:06:00;101533.00;;;2.20
37536;BMP180;23379;51.554;6.736;2024-02-28T06:08:25;101560.00;;;2.10
37536;BMP180;23379;51.554;6.736;2024-02-28T06:10:50;101566.00;;;2.40
37536;BMP180;23379;51.554;6.736;2024-02-28T06:13:17;101563.00;;;2.30
37536;BMP180;23379;51.554;6.736;2024-02-28T06:15:43;101563.00;;;2.30
37536;BMP180;23379;51.554;6.736;2024-02-28T06:18:08;101562.00;;;2.40
37536;BMP180;23379;51.554;6.736;2024-02-28T06:20:34;101580.00;;;2.40
37536;BMP180;23379;51.554;6.736;2024-02-28T06:22:59;101591.00;;;2.50
37536;BMP180;23379;51.554;6.736;2024-02-28T06:25:25;101591.00;;;2.60
37536;BMP180;23379;51.554;6.736;2024-02-28T06:27:52;101603.00;;;2.50
37536;BMP180;23379;51.554;6.736;2024-02-28T06:30:18;101569.00;;;2.40
37536;BMP180;23379;51.554;6.736;2024-02-28T06:32:44;101588.00;;;2.50
37536;BMP180;23379;51.554;6.736;2024-02-28T06:35:09;101589.00;;;2.60
37536;BMP180;23379;51.554;6.736;2024-02-28T06:37:35;101597.00;;;2.50
37536;BMP180;23379;51.554;6.736;2024-02-28T06:40:02;101622.00;;;2.50
37536;BMP180;23379;51.554;6.736;2024-02-28T06:42:29;101607.00;;;2.70
37536;BMP180;23379;51.554;6.736;2024-02-28T06:44:54;101598.00;;;2.90
37536;BMP180;23379;51.554;6.736;2024-02-28T06:47:20;101601.00;;;3.00
37536;BMP180;23379;51.554;6.736;2024-02-28T06:49:45;101602.00;;;2.90
37536;BMP180;23379;51.554;6.736;2024-02-28T06:52:11;101597.00;;;2.60
37536;BMP180;23379;51.554;6.736;2024-02-28T06:54:37;101623.00;;;2.70
37536;BMP180;23379;51.554;6.736;2024-02-28T06:57:02;101599.00;;;2.60
37536;BMP180;23379;51.554;6.736;2024-02-28T06:59:28;101608.00;;;2.60
37536;BMP180;23379;51.554;6.736;2024-02-28T07:01:53;101605.00;;;2.20
37536;BMP180;23379;51.554;6.736;2024-02-28T07:04:18;101607.00;;;2.30
37536;BMP180;23379;51.554;6.736;2024-02-28T07:06:43;101603.00;;;2.60
37536;BMP180;23379;51.554;6.736;2024-02-28T07:09:09;101616.00;;;2.70
37536;BMP180;23379;51.554;6.736;2024-02-28T07:11:34;101637.00;;;2.70
37536;BMP180;23379;51.554;6.736;2024-02-28T07:14:02;101625.00;;;2.90
37536;BMP180;23379;51.554;6.736;2024-02-28T07:16:31;101636.00;;;2.70
37536;BMP180;23379;51.554;6.736;2024-02-28T07:18:59;101627.00;;;2.80
37536;BMP180;23379;51.554;6.736;2024-02-28T07:21:25;101638.00;;;2.60
37536;BMP180;23379;51.554;6.736;2024-02-28T07:23:50;101641.00;;;3.00
37536;BMP180;23379;51.554;6.736;2024-02-28T07:26:16;101629.00;;;3.20
37536;BMP180;23379;51.554;6.736;2024-02-28T07:28:42;101635.00;;;3.20
37536;BMP180;23379;51.554;6.736;2024-02-28T07:31:14;101642.00;;;2.90
37536;BMP180;23379;51.554;6.736;2024-02-28T07:33:39;101648.00;;;2.70
37536;BMP180;23379;51.554;6.736;2024-02-28T07:36:05;101655.00;;;2.80
37536;BMP180;23379;51.554;6.736;2024-02-28T07:38:30;101648.00;;;3.10
37536;BMP180;23379;51.554;6.736;2024-02-28T07:40:55;101664.00;;;3.20
37536;BMP180;23379;51.554;6.736;2024-02-28T07:43:21;101656.00;;;3.20
37536;BMP180;23379;51.554;6.736;2024-02-28T07:45:46;101651.00;;;2.90
37536;BMP180;23379;51.554;6.736;2024-02-28T07:48:11;101664.00;;;2.90
37536;BMP180;23379;51.554;6.736;2024-02-28T07:50:37;101659.00;;;3.00
37536;BMP180;23379;51.554;6.736;2024-02-28T07:53:03;101664.00;;;2.70
37536;BMP180;23379;51.554;6.736;2024-02-28T07:55:29;101664.00;;;2.90
37536;BMP180;23379;51.554;6.736;2024-02-28T07:57:54;101657.00;;;3.00
37536;BMP180;23379;51.554;6.736;2024-02-28T08:00:19;101667.00;;;3.00
37536;BMP180;23379;51.554;6.736;2024-02-28T08:02:46;101683.00;;;3.10
37536;BMP180;23379;51.554;6.736;2024-02-28T08:05:11;101667.00;;;3.10
37536;BMP180;23379;51.554;6.736;2024-02-28T08:07:37;101670.00;;;3.20
37536;BMP180;23379;51.554;6.736;2024-02-28T08:10:03;101680.00;;;3.50
37536;BMP180;23379;51.554;6.736;2024-02-28T08:12:30;101681.00;;;3.60
37536;BMP180;23379;51.554;6.736;2024-02-28T08:14:55;101682.00;;;3.60
37536;BMP180;23379;51.554;6.736;2024-02-28T08:17:21;101673.00;;;3.30
37536;BMP180;23379;51.554;6.736;2024-02-28T08:19:46;101671.00;;;3.70
37536;BMP180;23379;51.554;6.736;2024-02-28T08:22:11;101654.00;;;3.50
37536;BMP180;23379;51.554;6.736;2024-02-28T08:24:37;101670.00;;;3.40
37536;BMP180;23379;51.554;6.736;2024-02-28T08:27:02;101669.00;;;3.60
37536;BMP180;23379;51.554;6.736;2024-02-28T08:29:28;101675.00;;;3.80
37536;BMP180;23379;51.554;6.736;2024-02-28T08:31:53;101653.00;;;3.90
37536;BMP180;23379;51.554;6.736;2024-02-28T08:34:18;101657.00;;;4.00
37536;BMP180;23379;51.554;6.736;2024-02-28T08:36:44;101665.00;;;3.70
37536;BMP180;23379;51.554;6.736;2024-02-28T08:39:09;101660.00;;;4.00
37536;BMP180;23379;51.554;6.736;2024-02-28T08:41:34;101652.00;;;3.90
37536;BMP180;23379;51.554;6.736;2024-02-28T08:44:00;101687.00;;;4.30
37536;BMP180;23379;51.554;6.736;2024-02-28T08:46:25;101689.00;;;4.30
37536;BMP180;23379;51.554;6.736;2024-02-28T08:48:51;101685.00;;;4.40
37536;BMP180;23379;51.554;6.736;2024-02-28T08:51:16;101664.00;;;4.40
37536;BMP180;23379;51.554;6.736;2024-02-28T08:53:41;101691.00;;;4.50
37536;BMP180;23379;51.554;6.736;2024-02-28T08:56:06;101700.00;;;4.60
37536;BMP180;23379;51.554;6.736;2024-02-28T08:58:32;101684.00;;;4.80
37536;BMP180;23379;51.554;6.736;2024-02-28T09:00:57;101717.00;;;4.90
37536;BMP180;23379;51.554;6.736;2024-02-28T09:03:23;101710.00;;;4.80
37536;BMP180;23379;51.554;6.736;2024-02-28T09:05:48;101703.00;;;4.70
37536;BMP180;23379;51.554;6.736;2024-02-28T09:08:14;101723.00;;;4.60
37536;BMP180;23379;51.554;6.736;2024-02-28T09:10:39;101697.00;;;4.50
37536;BMP180;23379;51.554;6.736;2024-02-28T09:13:04;101661.00;;;4.70
37536;BMP180;23379;51.554;6.736;2024-02-28T09:15:32;101668.00;;;4.60
37536;BMP180;23379;51.554;6.736;2024-02-28T09:17:57;101699.00;;;5.10
37536;BMP180;23379;51.554;6.736;2024-02-28T09:20:22;101703.00;;;5.20
37536;BMP180;23379;51.554;6.736;2024-02-28T09:22:47;101694.00;;;4.70
37536;BMP180;23379;51.554;6.736;2024-02-28T09:25:13;101713.00;;;4.90
37536;BMP180;23379;51.554;6.736;2024-02-28T09:27:40;101705.00;;;5.20
37536;BMP180;23379;51.554;6.736;2024-02-28T09:30:06;101718.00;;;5.10
37536;BMP180;23379;51.554;6.736;2024-02-28T09:32:32;101682.00;;;5.10
37536;BMP180;23379;51.554;6.736;2024-02-28T09:34:57;101695.00;;;4.90
37536;BMP180;23379;51.554;6.736;2024-02-28T09:37:22;101702.00;;;4.80
37536;BMP180;23379;51.554;6.736;2024-02-28T09:39:49;101700.00;;;4.90
37536;BMP180;23379;51.554;6.736;2024-02-28T09:42:16;101684.00;;;4.80
37536;BMP180;23379;51.554;6.736;2024-02-28T09:44:42;101713.00;;;4.80
37536;BMP180;23379;51.554;6.736;2024-02-28T09:47:08;101682.00;;;5.20
37536;BMP180;23379;51.554;6.736;2024-02-28T09:49:34;101673.00;;;5.40
37536;BMP180;23379;51.554;6.736;2024-02-28T09:52:03;101685.00;;;5.10
37536;BMP180;23379;51.554;6.736;2024-02-28T09:54:28;101700.00;;;5.20
37536;BMP180;23379;51.554;6.736;2024-02-28T09:56:54;101667.00;;;5.70
37536;BMP180;23379;51.554;6.736;2024-02-28T09:59:20;101646.00;;;5.90
37536;BMP180;23379;51.554;6.736;2024-02-28T10:01:55;101689.00;;;6.10
37536;BMP180;23379;51.554;6.736;2024-02-28T10:04:21;101684.00;;;6.50
37536;BMP180;23379;51.554;6.736;2024-02-28T10:06:46;101682.00;;;6.40
37536;BMP180;23379;51.554;6.736;2024-02-28T10:09:15;101693.00;;;6.70
37536;BMP180;23379;51.554;6.736;2024-02-28T10:11:41;101694.00;;;6.60
37536;BMP180;23379;51.554;6.736;2024-02-28T10:14:08;101701.00;;;6.60
37536;BMP180;23379;51.554;6.736;2024-02-28T10:16:34;101686.00;;;6.20
37536;BMP180;23379;51.554;6.736;2024-02-28T10:18:59;101686.00;;;6.20
37536;BMP180;23379;51.554;6.736;2024-02-28T10:21:25;101679.00;;;6.50
37536;BMP180;23379;51.554;6.736;2024-02-28T10:23:51;101690.00;;;6.40
37536;BMP180;23379;51.554;6.736;2024-02-28T10:26:16;101699.00;;;6.80
37536;BMP180;23379;51.554;6.736;2024-02-28T10:28:42;101684.00;;;6.70
37536;BMP180;23379;51.554;6.736;2024-02-28T10:31:09;101705.00;;;6.40
37536;BMP180;23379;51.554;6.736;2024-02-28T10:33:35;101698.00;;;6.50
37536;BMP180;23379;51.554;6.736;2024-02-28T10:36:02;101721.00;;;6.70
37536;BMP180;23379;51.554;6.736;2024-02-28T10:38:30;101711.00;;;7.50
37536;BMP180;23379;51.554;6.736;2024-02-28T10:40:56;101717.00;;;7.90
37536;BMP180;23379;51.554;6.736;2024-02-28T10:43:23;101717.00;;;7.80
37536;BMP180;23379;51.554;6.736;2024-02-28T10:45:50;101725.00;;;7.80
37536;BMP180;23379;51.554;6.736;2024-02-28T10:48:16;101718.00;;;7.40
37536;BMP180;23379;51.554;6.736;2024-02-28T10:50:44;101723.00;;;7.20
37536;BMP180;23379;51.554;6.736;2024-02-28T10:53:13;101726.00;;;7.20
37536;BMP180;23379;51.554;6.736;2024-02-28T10:55:40;101743.00;;;6.90
37536;BMP180;23379;51.554;6.736;2024-02-28T10:58:10;101740.00;;;6.90
37536;BMP180;23379;51.554;6.736;2024-02-28T11:00:36;101726.00;;;6.50
37536;BMP180;23379;51.554;6.736;2024-02-28T11:03:04;101723.00;;;6.80
37536;BMP180;23379;51.554;6.736;2024-02-28T11:05:39;101728.00;;;7.00
37536;BMP180;23379;51.554;6.736;2024-02-28T11:08:09;101736.00;;;7.00
37536;BMP180;23379;51.554;6.736;2024-02-28T11:10:35;101716.00;;;6.80
37536;BMP180;23379;51.554;6.736;2024-02-28T11:13:00;101720.00;;;6.70
37536;BMP180;23379;51.554;6.736;2024-02-28T11:15:25;101724.00;;;6.30
37536;BMP180;23379;51.554;6.736;2024-02-28T11:17:54;101724.00;;;6.00
37536;BMP180;23379;51.554;6.736;2024-02-28T11:20:20;101724.00;;;6.30
37536;BMP180;23379;51.554;6.736;2024-02-28T11:22:47;101695.00;;;6.70
37536;BMP180;23379;51.554;6.736;2024-02-28T11:25:13;101709.00;;;6.80
37536;BMP180;23379;51.554;6.736;2024-02-28T11:27:48;101720.00;;;6.40
37536;BMP180;23379;51.554;6.736;2024-02-28T11:30:14;101726.00;;;6.10
37536;BMP180;23379;51.554;6.736;2024-02-28T11:32:40;101716.00;;;6.10
37536;BMP180;23379;51.554;6.736;2024-02-28T11:35:06;101703.00;;;6.40
37536;BMP180;23379;51.554;6.736;2024-02-28T11:37:31;101710.00;;;6.40
37536;BMP180;23379;51.554;6.736;2024-02-28T11:39:57;101695.00;;;6.20
37536;BMP180;23379;51.554;6.736;2024-02-28T11:42:23;101711.00;;;6.00
37536;BMP180;23379;51.554;6.736;2024-02-28T11:44:55;101710.00;;;5.90
37536;BMP180;23379;51.554;6.736;2024-02-28T11:47:22;101702.00;;;5.90
37536;BMP180;23379;51.554;6.736;2024-02-28T11:49:49;101703.00;;;6.00
37536;BMP180;23379;51.554;6.736;2024-02-28T11:52:14;101695.00;;;6.40
37536;BMP180;23379;51.554;6.736;2024-02-28T11:54:39;101694.00;;;6.80
37536;BMP180;23379;51.554;6.736;2024-02-28T11:57:07;101684.00;;;7.30
37536;BMP180;23379;51.554;6.736;2024-02-28T11:59:32;101687.00;;;7.60
37536;BMP180;23379;51.554;6.736;2024-02-28T12:01:58;101679.00;;;8.00
37536;BMP180;23379;51.554;6.736;2024-02-28T12:04:24;101698.00;;;8.60
37536;BMP180;23379;51.554;6.736;2024-02-28T12:06:50;101682.00;;;8.30
37536;BMP180;23379;51.554;6.736;2024-02-28T12:09:17;101680.00;;;8.00
37536;BMP180;23379;51.554;6.736;2024-02-28T12:11:43;101675.00;;;8.50
37536;BMP180;23379;51.554;6.736;2024-02-28T12:14:09;101682.00;;;8.10
37536;BMP180;23379;51.554;6.736;2024-02-28T12:16:39;101675.00;;;7.90
37536;BMP180;23379;51.554;6.736;2024-02-28T12:19:10;101694.00;;;8.20
37536;BMP180;23379;51.554;6.736;2024-02-28T12:21:39;101678.00;;;8.40
37536;BMP180;23379;51.554;6.736;2024-02-28T12:24:09;101682.00;;;8.90
37536;BMP180;23379;51.554;6.736;2024-02-28T12:26:36;101671.00;;;8.10
37536;BMP180;23379;51.554;6.736;2024-02-28T12:29:01;101647.00;;;8.50
37536;BMP180;23379;51.554;6.736;2024-02-28T12:31:27;101672.00;;;8.70
37536;BMP180;23379;51.554;6.736;2024-02-28T12:33:53;101661.00;;;9.40
37536;BMP180;23379;51.554;6.736;2024-02-28T12:36:20;101677.00;;;9.10
37536;BMP180;23379;51.554;6.736;2024-02-28T12:38:45;101653.00;;;9.90
37536;BMP180;23379;51.554;6.736;2024-02-28T12:41:11;101648.00;;;9.70
37536;BMP180;23379;51.554;6.736;2024-02-28T12:43:38;101643.00;;;9.20
37536;BMP180;23379;51.554;6.736;2024-02-28T12:46:04;101648.00;;;10.00
37536;BMP180;23379;51.554;6.736;2024-02-28T12:48:29;101636.00;;;10.10
37536;BMP180;23379;51.554;6.736;2024-02-28T12:50:56;101634.00;;;10.70
37536;BMP180;23379;51.554;6.736;2024-02-28T12:53:21;101632.00;;;11.60
37536;BMP180;23379;51.554;6.736;2024-02-28T12:55:47;101633.00;;;11.40
37536;BMP180;23379;51.554;6.736;2024-02-28T12:58:12;101627.00;;;11.20
37536;BMP180;23379;51.554;6.736;2024-02-28T13:00:37;101623.00;;;11.50
37536;BMP180;23379;51.554;6.736;2024-02-28T13:03:03;101634.00;;;11.60
37536;BMP180;23379;51.554;6.736;2024-02-28T13:05:29;101605.00;;;11.40
37536;BMP180;23379;51.554;6.736;2024-02-28T13:07:54;101612.00;;;10.80
37536;BMP180;23379;51.554;6.736;2024-02-28T13:10:20;101614.00;;;10.80
37536;BMP180;23379;51.554;6.736;2024-02-28T13:12:47;101621.00;;;10.70
37536;BMP180;23379;51.554;6.736;2024-02-28T13:15:12;101602.00;;;10.00
37536;BMP180;23379;51.554;6.736;2024-02-28T13:17:38;101619.00;;;10.60
37536;BMP180;23379;51.554;6.736;2024-02-28T13:20:03;101614.00;;;10.90
37536;BMP180;23379;51.554;6.736;2024-02-28T13:22:29;101615.00;;;10.30
37536;BMP180;23379;51.554;6.736;2024-02-28T13:24:55;101629.00;;;10.10
37536;BMP180;23379;51.554;6.736;2024-02-28T13:27:22;101591.00;;;9.90
37536;BMP180;23379;51.554;6.736;2024-02-28T13:29:48;101619.00;;;10.50
37536;BMP180;23379;51.554;6.736;2024-02-28T13:32:13;101603.00;;;10.20
37536;BMP180;23379;51.554;6.736;2024-02-28T13:34:39;101615.00;;;10.70
37536;BMP180;23379;51.554;6.736;2024-02-28T13:37:05;101598.00;;;9.80
37536;BMP180;23379;51.554;6.736;2024-02-28T13:39:30;101608.00;;;9.70
37536;BMP180;23379;51.554;6.736;2024-02-28T13:41:56;101621.00;;;9.80
37536;BMP180;23379;51.554;6.736;2024-02-28T13:44:22;101597.00;;;9.80
37536;BMP180;23379;51.554;6.736;2024-02-28T13:46:48;101588.00;;;10.40
37536;BMP180;23379;51.554;6.736;2024-02-28T13:49:15;101585.00;;;10.00
37536;BMP180;23379;51.554;6.736;2024-02-28T13:51:41;101600.00;;;9.90
37536;BMP180;23379;51.554;6.736;2024-02-28T13:54:07;101594.00;;;10.30
37536;BMP180;23379;51.554;6.736;2024-02-28T13:56:32;101564.00;;;10.00
37536;BMP180;23379;51.554;6.736;2024-02-28T13:58:57;101585.00;;;10.40
37536;BMP180;23379;51.554;6.736;2024-02-28T14:01:23;101572.00;;;10.50